createdAt,value
2019-03-24T00:01:41.087Z,99698.80
2019-03-24T00:04:04.324Z,99700.56
2019-03-24T00:06:32.519Z,99697.87
2019-03-24T00:09:00.725Z,99692.07
2019-03-24T00:11:29.274Z,99695.28
2019-03-24T00:13:57.477Z,99691.73
2019-03-24T00:16:25.677Z,99689.50
2019-03-24T00:18:53.870Z,99694.88
2019-03-24T00:21:22.080Z,99698.56
2019-03-24T00:23:50.650Z,99696.80
2019-03-24T00:26:18.849Z,99695.00
2019-03-24T00:28:47.053Z,99688.75
2019-03-24T00:31:15.582Z,99687.45
2019-03-24T00:33:43.884Z,99688.84
2019-03-24T00:36:12.443Z,99686.20
2019-03-24T00:38:40.739Z,99684.50
2019-03-24T00:41:08.944Z,99680.09
2019-03-24T00:43:37.143Z,99680.56
2019-03-24T00:46:05.354Z,99681.45
2019-03-24T00:48:33.817Z,99678.31
2019-03-24T00:51:02.018Z,99672.91
2019-03-24T00:53:30.218Z,99665.30
2019-03-24T00:55:58.424Z,99673.39
2019-03-24T00:58:26.622Z,99668.99
2019-03-24T01:00:54.826Z,99670.85
2019-03-24T01:03:23.021Z,99658.74
2019-03-24T01:05:51.222Z,99653.88
2019-03-24T01:08:19.421Z,99658.37
2019-03-24T01:10:47.626Z,99655.74
2019-03-24T01:13:17.845Z,99657.61
2019-03-24T01:15:48.048Z,99654.91
2019-03-24T01:18:16.307Z,99651.76
2019-03-24T01:20:44.546Z,99645.52
2019-03-24T01:23:13.179Z,99650.06
2019-03-24T01:25:41.743Z,99640.19
2019-03-24T01:28:09.966Z,99646.50
2019-03-24T01:30:38.182Z,99645.20
2019-03-24T01:33:06.682Z,99642.92
2019-03-24T01:35:34.893Z,99638.11
2019-03-24T01:38:03.102Z,99637.70
2019-03-24T01:40:31.543Z,99632.84
2019-03-24T01:42:59.739Z,99633.32
2019-03-24T01:45:27.955Z,99632.91
2019-03-24T01:47:56.151Z,99631.56
2019-03-24T01:50:24.722Z,99632.08
2019-03-24T01:52:53.190Z,99632.55
2019-03-24T01:55:21.670Z,99630.73
2019-03-24T01:57:50.465Z,99630.73
2019-03-24T02:00:18.673Z,99625.87
2019-03-24T02:02:47.321Z,99628.14
2019-03-24T02:05:15.534Z,99627.73
2019-03-24T02:07:44.083Z,99627.31
2019-03-24T02:10:12.294Z,99625.14
2019-03-24T02:12:40.489Z,99627.37
2019-03-24T02:15:08.707Z,99625.63
2019-03-24T02:17:36.912Z,99630.17
2019-03-24T02:20:06.173Z,99627.53
2019-03-24T02:22:34.377Z,99629.34
2019-03-24T02:25:03.033Z,99622.62
2019-03-24T02:27:31.510Z,99628.41
2019-03-24T02:30:00.000Z,99620.76
2019-03-24T02:32:28.207Z,99614.55
2019-03-24T02:34:56.413Z,99615.89
2019-03-24T02:37:24.845Z,99618.58
2019-03-24T02:39:53.049Z,99620.45
2019-03-24T02:42:21.584Z,99623.13
2019-03-24T02:44:49.780Z,99619.56
2019-03-24T02:47:17.979Z,99622.30
2019-03-24T02:49:46.534Z,99620.95
2019-03-24T02:52:15.004Z,99618.69
2019-03-24T02:54:43.474Z,99614.59
2019-03-24T02:57:13.602Z,99614.50
2019-03-24T02:59:41.815Z,99609.59
2019-03-24T03:02:10.344Z,99609.07
2019-03-24T03:04:38.557Z,99603.64
2019-03-24T03:07:07.105Z,99608.14
2019-03-24T03:09:35.585Z,99605.45
2019-03-24T03:12:04.065Z,99597.38
2019-03-24T03:14:32.264Z,99593.77
2019-03-24T03:17:00.462Z,99592.00
2019-03-24T03:19:28.663Z,99586.62
2019-03-24T03:21:56.869Z,99582.98
2019-03-24T03:24:25.068Z,99587.02
2019-03-24T03:26:53.384Z,99589.71
2019-03-24T03:29:21.567Z,99587.04
2019-03-24T03:31:50.093Z,99582.52
2019-03-24T03:34:18.276Z,99583.41
2019-03-24T03:36:46.511Z,99577.56
2019-03-24T03:39:15.003Z,99576.21
2019-03-24T03:41:43.509Z,99573.94
2019-03-24T03:44:11.683Z,99573.00
2019-03-24T03:46:51.961Z,99568.97
2019-03-24T03:49:10.154Z,99566.28
2019-03-24T03:51:38.636Z,99561.31
2019-03-24T03:54:07.432Z,99563.08
2019-03-24T03:56:35.644Z,99559.92
2019-03-24T03:59:03.889Z,99556.81
2019-03-24T04:01:32.866Z,99554.59
2019-03-24T04:04:02.699Z,99555.47
2019-03-24T04:06:30.910Z,99551.38
2019-03-24T04:08:59.130Z,99549.11
2019-03-24T04:11:27.713Z,99547.70
2019-03-24T04:13:56.192Z,99552.16
2019-03-24T04:16:24.415Z,99554.02
2019-03-24T04:18:52.636Z,99546.36
2019-03-24T04:21:21.071Z,99543.20
2019-03-24T04:23:49.273Z,99544.09
2019-03-24T04:26:17.776Z,99543.66
2019-03-24T04:28:46.259Z,99541.84
2019-03-24T04:31:14.734Z,99532.45
2019-03-24T04:33:42.931Z,99534.67
2019-03-24T04:36:11.487Z,99540.03
2019-03-24T04:38:39.682Z,99531.97
2019-03-24T04:41:08.249Z,99535.53
2019-03-24T04:43:37.034Z,99527.46
2019-03-24T04:46:05.246Z,99521.67
2019-03-24T04:48:33.446Z,99522.96
2019-03-24T04:51:01.906Z,99519.86
2019-03-24T04:53:30.443Z,99522.55
2019-03-24T04:55:58.773Z,99524.77
2019-03-24T04:58:26.975Z,99524.72
2019-03-24T05:00:55.193Z,99532.79
2019-03-24T05:03:23.392Z,99534.55
2019-03-24T05:05:51.601Z,99534.13
2019-03-24T05:08:19.800Z,99542.20
2019-03-24T05:10:47.995Z,99538.58
2019-03-24T05:13:16.194Z,99539.92
2019-03-24T05:15:44.396Z,99533.67
2019-03-24T05:18:12.621Z,99538.06
2019-03-24T05:20:41.068Z,99532.69
2019-03-24T05:23:09.550Z,99530.92
2019-03-24T05:25:38.036Z,99533.09
2019-03-24T05:28:06.235Z,99533.56
2019-03-24T05:30:34.888Z,99537.13
2019-03-24T05:33:03.091Z,99525.02
2019-03-24T05:35:31.367Z,99525.44
2019-03-24T05:37:59.570Z,99520.94
2019-03-24T05:40:27.770Z,99520.88
2019-03-24T05:42:56.266Z,99517.31
2019-03-24T05:45:24.484Z,99517.72
2019-03-24T05:47:52.688Z,99525.77
2019-03-24T05:50:21.201Z,99525.33
2019-03-24T05:52:50.718Z,99523.08
2019-03-24T05:55:19.190Z,99522.16
2019-03-24T05:57:47.397Z,99505.08
2019-03-24T06:00:15.947Z,99507.77
2019-03-24T06:02:44.422Z,99509.52
2019-03-24T06:05:12.618Z,99509.52
2019-03-24T06:07:41.179Z,99518.88
2019-03-24T06:10:09.682Z,99513.97
2019-03-24T06:12:37.896Z,99517.89
2019-03-24T06:15:07.937Z,99517.89
2019-03-24T06:17:36.150Z,99514.33
2019-03-24T06:20:05.961Z,99510.70
2019-03-24T06:22:34.174Z,99516.03
2019-03-24T06:25:02.390Z,99520.48
2019-03-24T06:27:30.603Z,99524.52
2019-03-24T06:29:59.146Z,99517.78
2019-03-24T06:32:27.366Z,99515.51
2019-03-24T06:34:55.570Z,99515.02
2019-03-24T06:37:23.791Z,99505.59
2019-03-24T06:39:52.254Z,99504.67
2019-03-24T06:42:20.457Z,99497.47
2019-03-24T06:44:49.008Z,99494.26
2019-03-24T06:47:17.492Z,99496.89
2019-03-24T06:49:45.690Z,99495.08
2019-03-24T06:52:14.248Z,99494.14
2019-03-24T06:54:42.730Z,99492.27
2019-03-24T06:57:11.204Z,99493.16
2019-03-24T06:59:39.685Z,99490.33
2019-03-24T07:02:08.366Z,99489.45
2019-03-24T07:04:36.597Z,99491.61
2019-03-24T07:07:05.218Z,99488.44
2019-03-24T07:09:33.426Z,99488.84
2019-03-24T07:12:01.638Z,99475.80
2019-03-24T07:14:29.834Z,99489.66
2019-03-24T07:16:58.444Z,99477.94
2019-03-24T07:19:26.920Z,99479.98
2019-03-24T07:21:55.271Z,99467.75
2019-03-24T07:24:23.481Z,99467.20
2019-03-24T07:26:52.078Z,99469.38
2019-03-24T07:29:20.287Z,99471.12
2019-03-24T07:31:48.511Z,99468.84
2019-03-24T07:34:16.979Z,99468.37
2019-03-24T07:36:45.414Z,99471.01
2019-03-24T07:39:13.624Z,99470.95
2019-03-24T07:41:41.849Z,99473.99
2019-03-24T07:44:10.394Z,99474.38
2019-03-24T07:46:38.617Z,99475.61
2019-03-24T07:49:06.825Z,99476.42
2019-03-24T07:51:35.325Z,99476.30
2019-03-24T07:54:03.527Z,99471.23
2019-03-24T07:56:32.061Z,99473.34
2019-03-24T07:59:00.262Z,99466.90
2019-03-24T08:01:28.579Z,99458.73
2019-03-24T08:03:56.788Z,99461.70
2019-03-24T08:06:25.306Z,99459.30
2019-03-24T08:08:53.871Z,99461.91
2019-03-24T08:11:22.066Z,99459.08
2019-03-24T08:13:53.881Z,99460.30
2019-03-24T08:16:20.207Z,99460.41
2019-03-24T08:18:48.711Z,99459.41
2019-03-24T08:21:17.289Z,99456.23
2019-03-24T08:23:45.768Z,99450.63
2019-03-24T08:26:13.974Z,99452.53
2019-03-24T08:28:42.519Z,99458.11
2019-03-24T08:31:11.205Z,99457.03
2019-03-24T08:33:39.414Z,99456.69
2019-03-24T08:36:07.961Z,99456.67
2019-03-24T08:38:42.029Z,99462.78
2019-03-24T08:41:11.421Z,99459.89
2019-03-24T08:43:39.672Z,99454.91
2019-03-24T08:46:07.874Z,99457.47
2019-03-24T08:48:40.871Z,99456.90
2019-03-24T08:51:06.056Z,99453.66
2019-03-24T08:53:34.269Z,99457.11
2019-03-24T08:56:02.780Z,99456.02
2019-03-24T08:58:31.357Z,99463.65
2019-03-24T09:00:59.568Z,99466.65
2019-03-24T09:03:27.779Z,99465.23
2019-03-24T09:05:55.994Z,99463.34
2019-03-24T09:08:24.667Z,99466.52
2019-03-24T09:10:52.872Z,99466.38
2019-03-24T09:13:21.090Z,99460.07
2019-03-24T09:15:49.809Z,99453.49
2019-03-24T09:18:18.020Z,99450.25
2019-03-24T09:20:46.569Z,99449.17
2019-03-24T09:23:14.796Z,99442.84
2019-03-24T09:25:43.008Z,99432.29
2019-03-24T09:28:11.224Z,99425.88
2019-03-24T09:30:39.447Z,99426.83
2019-03-24T09:33:07.667Z,99422.22
2019-03-24T09:35:36.216Z,99415.90
2019-03-24T09:38:04.436Z,99410.81
2019-03-24T09:40:36.248Z,99410.35
2019-03-24T09:43:04.094Z,99411.36
2019-03-24T09:45:32.234Z,99403.55
2019-03-24T09:48:00.619Z,99401.77
2019-03-24T09:50:28.820Z,99394.56
2019-03-24T09:52:57.305Z,99382.98
2019-03-24T09:55:25.508Z,99383.18
2019-03-24T09:57:53.723Z,99390.18
2019-03-24T10:00:22.248Z,99387.67
2019-03-24T10:02:50.469Z,99391.41
2019-03-24T10:05:19.004Z,99388.06
2019-03-24T10:07:47.231Z,99382.99
2019-03-24T10:10:15.840Z,99377.02
2019-03-24T10:12:44.043Z,99365.24
2019-03-24T10:15:12.519Z,99359.75
2019-03-24T10:17:40.769Z,99360.33
2019-03-24T10:20:09.176Z,99355.15
2019-03-24T10:22:37.651Z,99354.73
2019-03-24T10:25:07.368Z,99355.08
2019-03-24T10:27:35.563Z,99354.91
2019-03-24T10:30:05.900Z,99354.52
2019-03-24T10:32:34.100Z,99348.28
2019-03-24T10:35:02.394Z,99345.14
2019-03-24T10:37:30.917Z,99345.70
2019-03-24T10:39:59.147Z,99354.77
2019-03-24T10:42:27.651Z,99355.33
2019-03-24T10:44:56.128Z,99354.53
2019-03-24T10:47:25.847Z,99345.36
2019-03-24T10:49:54.021Z,99341.03
2019-03-24T10:52:22.314Z,99342.03
2019-03-24T10:54:50.528Z,99340.14
2019-03-24T10:57:18.728Z,99346.73
2019-03-24T10:59:46.943Z,99340.45
2019-03-24T11:02:15.138Z,99341.71
2019-03-24T11:04:43.348Z,99344.64
2019-03-24T11:07:11.561Z,99341.52
2019-03-24T11:09:40.120Z,99336.70
2019-03-24T11:12:08.420Z,99336.11
2019-03-24T11:14:36.629Z,99332.34
2019-03-24T11:17:04.827Z,99328.98
2019-03-24T11:19:35.868Z,99320.29
2019-03-24T11:22:03.273Z,99320.69
2019-03-24T11:24:31.560Z,99305.31
2019-03-24T11:26:59.758Z,99303.00
2019-03-24T11:29:27.958Z,99306.61
2019-03-24T11:31:56.177Z,99305.66
2019-03-24T11:34:24.714Z,99301.59
2019-03-24T11:36:52.929Z,99298.89
2019-03-24T11:39:21.474Z,99294.95
2019-03-24T11:41:50.164Z,99302.50
2019-03-24T11:44:18.373Z,99289.83
2019-03-24T11:46:46.589Z,99284.45
2019-03-24T11:49:18.881Z,99287.23
2019-03-24T11:51:47.074Z,99280.28
2019-03-24T11:54:15.552Z,99291.51
2019-03-24T11:56:43.747Z,99281.62
2019-03-24T11:59:11.964Z,99283.55
2019-03-24T12:01:40.161Z,99272.33
2019-03-24T12:04:08.375Z,99257.60
2019-03-24T12:06:36.575Z,99256.38
2019-03-24T12:09:07.373Z,99246.80
2019-03-24T12:11:35.607Z,99245.05
2019-03-24T12:14:04.651Z,99243.12
2019-03-24T12:16:33.392Z,99243.78
2019-03-24T12:19:01.605Z,99236.92
2019-03-24T12:21:29.825Z,99237.97
2019-03-24T12:23:58.051Z,99239.20
2019-03-24T12:26:26.260Z,99242.84
2019-03-24T12:28:54.461Z,99242.31
2019-03-24T12:31:22.675Z,99238.24
2019-03-24T12:33:50.947Z,99236.89
2019-03-24T12:36:19.174Z,99234.88
2019-03-24T12:38:47.373Z,99233.73
2019-03-24T12:41:15.577Z,99221.80
2019-03-24T12:43:43.778Z,99221.62
2019-03-24T12:46:11.987Z,99213.54
2019-03-24T12:48:40.474Z,99212.59
2019-03-24T12:51:08.685Z,99205.86
2019-03-24T12:53:37.243Z,99204.16
2019-03-24T12:56:05.448Z,99205.42
2019-03-24T12:58:33.659Z,99202.13
2019-03-24T13:01:01.869Z,99198.94
2019-03-24T13:03:30.092Z,99189.44
2019-03-24T13:05:58.321Z,99197.34
2019-03-24T13:08:26.527Z,99197.89
2019-03-24T13:10:54.996Z,99194.61
2019-03-24T13:13:23.290Z,99192.47
2019-03-24T13:15:52.171Z,99182.59
2019-03-24T13:18:20.423Z,99185.30
2019-03-24T13:20:48.830Z,99179.80
2019-03-24T13:23:17.136Z,99182.20
2019-03-24T13:25:45.353Z,99180.52
2019-03-24T13:28:13.818Z,99182.30
2019-03-24T13:30:42.305Z,99176.39
2019-03-24T13:33:10.774Z,99185.03
2019-03-24T13:35:38.990Z,99177.27
2019-03-24T13:38:07.221Z,99175.83
2019-03-24T13:40:35.457Z,99179.27
2019-03-24T13:43:03.651Z,99171.13
2019-03-24T13:45:31.864Z,99164.64
2019-03-24T13:48:00.082Z,99165.03
2019-03-24T13:50:31.711Z,99159.03
2019-03-24T13:52:58.447Z,99152.84
2019-03-24T13:55:26.654Z,99153.70
2019-03-24T13:57:54.881Z,99165.81
2019-03-24T14:00:23.079Z,99161.50
2019-03-24T14:02:51.288Z,99158.69
2019-03-24T14:05:19.792Z,99163.98
2019-03-24T14:07:48.378Z,99161.06
2019-03-24T14:10:16.859Z,99163.01
2019-03-24T14:12:45.079Z,99167.66
2019-03-24T14:15:13.303Z,99169.11
2019-03-24T14:17:42.111Z,99156.42
2019-03-24T14:20:10.307Z,99147.99
2019-03-24T14:22:38.862Z,99149.05
2019-03-24T14:25:07.557Z,99144.84
2019-03-24T14:27:35.756Z,99143.48
2019-03-24T14:30:08.209Z,99144.20
2019-03-24T14:32:36.424Z,99144.53
2019-03-24T14:35:06.412Z,99151.84
2019-03-24T14:37:34.965Z,99143.17
2019-03-24T14:40:07.765Z,99138.15
2019-03-24T14:42:36.447Z,99144.29
2019-03-24T14:45:06.694Z,99140.61
2019-03-24T14:47:35.136Z,99126.88
2019-03-24T14:50:03.810Z,99129.50
2019-03-24T14:52:32.010Z,99141.21
2019-03-24T14:55:00.378Z,99136.66
2019-03-24T14:57:28.959Z,99126.98
2019-03-24T14:59:57.743Z,99127.55
2019-03-24T15:02:25.960Z,99127.55
2019-03-24T15:04:54.170Z,99128.52
2019-03-24T15:07:22.379Z,99124.19
2019-03-24T15:09:50.582Z,99123.44
2019-03-24T15:12:18.784Z,99124.66
2019-03-24T15:14:47.287Z,99119.78
2019-03-24T15:17:15.775Z,99110.48
2019-03-24T15:19:43.970Z,99106.83
2019-03-24T15:22:12.418Z,99113.30
2019-03-24T15:24:40.923Z,99113.69
2019-03-24T15:27:09.155Z,99108.13
2019-03-24T15:29:37.663Z,99094.99
2019-03-24T15:32:06.240Z,99093.73
2019-03-24T15:34:34.726Z,99094.31
2019-03-24T15:37:02.944Z,99098.85
2019-03-24T15:39:31.155Z,99091.44
2019-03-24T15:41:59.364Z,99084.45
2019-03-24T15:44:27.652Z,99088.98
2019-03-24T15:46:55.859Z,99086.50
2019-03-24T15:49:24.063Z,99089.34
2019-03-24T15:51:52.281Z,99090.75
2019-03-24T15:54:20.483Z,99088.61
2019-03-24T15:56:48.695Z,99086.68
2019-03-24T15:59:17.429Z,99084.25
2019-03-24T16:01:45.651Z,99077.38
2019-03-24T16:04:14.224Z,99070.44
2019-03-24T16:06:42.444Z,99074.28
2019-03-24T16:09:11.010Z,99080.56
2019-03-24T16:11:39.214Z,99075.75
2019-03-24T16:14:07.746Z,99075.11
2019-03-24T16:16:35.956Z,99075.51
2019-03-24T16:19:04.520Z,99076.81
2019-03-24T16:21:32.735Z,99075.38
2019-03-24T16:24:00.937Z,99073.39
2019-03-24T16:26:29.444Z,99074.11
2019-03-24T16:28:57.643Z,99068.58
2019-03-24T16:31:25.848Z,99070.38
2019-03-24T16:33:54.047Z,99070.80
2019-03-24T16:36:22.252Z,99072.07
2019-03-24T16:39:02.937Z,99075.80
2019-03-24T16:41:22.479Z,99067.69
2019-03-24T16:43:50.955Z,99068.17
2019-03-24T16:46:19.432Z,99070.39
2019-03-24T16:48:47.648Z,99074.36
2019-03-24T16:51:16.121Z,99071.53
2019-03-24T16:53:44.344Z,99063.89
2019-03-24T16:56:12.539Z,99061.27
2019-03-24T16:58:41.021Z,99062.91
2019-03-24T17:01:09.224Z,99055.77
2019-03-24T17:03:37.780Z,99059.58
2019-03-24T17:06:06.091Z,99053.30
2019-03-24T17:08:34.651Z,99050.13
2019-03-24T17:11:02.894Z,99053.38
2019-03-24T17:13:31.357Z,99050.25
2019-03-24T17:15:59.802Z,99042.38
2019-03-24T17:18:28.028Z,99042.05
2019-03-24T17:20:56.226Z,99041.58
2019-03-24T17:23:24.435Z,99044.55
2019-03-24T17:25:52.634Z,99041.37
2019-03-24T17:28:20.875Z,99037.80
2019-03-24T17:30:49.081Z,99038.19
2019-03-24T17:33:17.298Z,99027.92
2019-03-24T17:35:45.496Z,99029.83
2019-03-24T17:38:13.761Z,99031.89
2019-03-24T17:40:41.961Z,99033.80
2019-03-24T17:43:10.506Z,99032.97
2019-03-24T17:45:38.706Z,99033.92
2019-03-24T17:48:07.255Z,99028.92
2019-03-24T17:50:35.769Z,99027.57
2019-03-24T17:53:06.671Z,99026.30
2019-03-24T17:55:34.365Z,99022.97
2019-03-24T17:58:02.714Z,99028.37
2019-03-24T18:00:43.900Z,99031.14
2019-03-24T18:03:12.102Z,99032.02
2019-03-24T18:05:40.301Z,99027.97
2019-03-24T18:08:09.026Z,99032.09
2019-03-24T18:10:37.542Z,99023.53
2019-03-24T18:13:05.743Z,99029.88
2019-03-24T18:15:34.070Z,99013.95
2019-03-24T18:18:02.360Z,99012.05
2019-03-24T18:20:34.710Z,99016.88
2019-03-24T18:23:02.916Z,99013.08
2019-03-24T18:25:31.244Z,99014.27
2019-03-24T18:27:59.461Z,99013.23
2019-03-24T18:30:27.703Z,99024.19
2019-03-24T18:32:55.917Z,99021.49
2019-03-24T18:35:24.137Z,99020.54
2019-03-24T18:37:52.363Z,99039.36
2019-03-24T18:40:20.922Z,99032.39
2019-03-24T18:42:49.124Z,99034.46
2019-03-24T18:45:17.726Z,99038.83
2019-03-24T18:47:45.932Z,99025.88
2019-03-24T18:50:14.920Z,99030.72
2019-03-24T18:52:43.423Z,99027.63
2019-03-24T18:55:11.902Z,99023.74
2019-03-24T18:57:40.117Z,99028.00
2019-03-24T19:00:09.418Z,99028.63
2019-03-24T19:02:37.698Z,99023.80
2019-03-24T19:05:07.052Z,99020.70
2019-03-24T19:07:35.259Z,99019.35
2019-03-24T19:10:06.434Z,99013.55
2019-03-24T19:12:34.640Z,99017.20
2019-03-24T19:15:03.263Z,99016.78
2019-03-24T19:17:31.713Z,99014.63
2019-03-24T19:20:00.032Z,99010.19
2019-03-24T19:22:33.487Z,99008.44
2019-03-24T19:24:58.426Z,99005.27
2019-03-24T19:27:26.636Z,99003.84
2019-03-24T19:29:54.852Z,98991.96
2019-03-24T19:32:23.415Z,98991.72
2019-03-24T19:34:51.637Z,98993.31
2019-03-24T19:37:20.175Z,98984.95
2019-03-24T19:39:48.776Z,98980.74
2019-03-24T19:42:16.980Z,98975.98
2019-03-24T19:44:45.242Z,98981.14
2019-03-24T19:47:13.514Z,98977.33
2019-03-24T19:49:41.760Z,98973.89
2019-03-24T19:52:10.243Z,98979.37
2019-03-24T19:54:38.450Z,98985.31
2019-03-24T19:57:06.670Z,98982.38
2019-03-24T19:59:35.002Z,98978.98
2019-03-24T20:02:03.549Z,98978.74
2019-03-24T20:04:31.747Z,98982.13
2019-03-24T20:06:59.954Z,98980.25
2019-03-24T20:09:31.429Z,98981.17
2019-03-24T20:11:59.644Z,98976.41
2019-03-24T20:14:27.849Z,98976.09
2019-03-24T20:16:56.487Z,98973.55
2019-03-24T20:19:24.887Z,98972.27
2019-03-24T20:21:53.445Z,98969.23
2019-03-24T20:24:21.652Z,98962.09
2019-03-24T20:26:50.198Z,98959.47
2019-03-24T20:29:18.483Z,98959.07
2019-03-24T20:31:47.054Z,98957.80
2019-03-24T20:34:15.540Z,98958.75
2019-03-24T20:36:44.230Z,98952.56
2019-03-24T20:39:12.450Z,98948.13
2019-03-24T20:41:40.986Z,98940.98
2019-03-24T20:44:11.249Z,98946.30
2019-03-24T20:46:39.134Z,98939.16
2019-03-24T20:49:07.669Z,98933.89
2019-03-24T20:51:35.919Z,98929.45
2019-03-24T20:54:04.107Z,98928.50
2019-03-24T20:56:32.319Z,98931.27
2019-03-24T20:59:00.562Z,98921.44
2019-03-24T21:01:28.765Z,98922.06
2019-03-24T21:03:57.028Z,98919.45
2019-03-24T21:06:25.294Z,98923.57
2019-03-24T21:08:53.504Z,98916.36
2019-03-24T21:11:21.731Z,98913.66
2019-03-24T21:13:49.944Z,98914.58
2019-03-24T21:16:18.486Z,98916.75
2019-03-24T21:18:46.695Z,98913.03
2019-03-24T21:21:15.246Z,98921.44
2019-03-24T21:23:43.642Z,98915.56
2019-03-24T21:26:11.871Z,98915.09
2019-03-24T21:28:40.371Z,98906.28
2019-03-24T21:31:08.586Z,98908.66
2019-03-24T21:33:36.799Z,98910.53
2019-03-24T21:36:05.306Z,98907.59
2019-03-24T21:38:33.612Z,98902.91
2019-03-24T21:41:01.829Z,98899.82
2019-03-24T21:43:30.040Z,98893.48
2019-03-24T21:45:58.256Z,98892.25
2019-03-24T21:48:29.066Z,98891.61
2019-03-24T21:50:57.289Z,98885.03
2019-03-24T21:53:25.541Z,98883.56
2019-03-24T21:55:54.065Z,98878.37
2019-03-24T21:58:22.273Z,98870.88
2019-03-24T22:00:50.538Z,98866.91
2019-03-24T22:03:19.100Z,98862.40
2019-03-24T22:05:47.323Z,98861.20
2019-03-24T22:08:15.523Z,98843.84
2019-03-24T22:10:43.727Z,98840.75
2019-03-24T22:13:18.765Z,98835.52
2019-03-24T22:15:48.164Z,98828.91
2019-03-24T22:18:16.375Z,98827.24
2019-03-24T22:20:49.135Z,98827.24
2019-03-24T22:23:23.565Z,98825.58
2019-03-24T22:25:52.619Z,98820.73
2019-03-24T22:28:24.173Z,98822.60
2019-03-24T22:30:55.632Z,98815.55
2019-03-24T22:33:24.539Z,98820.14
2019-03-24T22:35:53.400Z,98812.14
2019-03-24T22:38:21.904Z,98812.21
2019-03-24T22:40:50.151Z,98811.02
2019-03-24T22:43:18.652Z,98817.28
2019-03-24T22:45:47.130Z,98816.88
2019-03-24T22:48:15.386Z,98816.05
2019-03-24T22:50:43.589Z,98814.30
2019-03-24T22:53:11.811Z,98810.41
2019-03-24T22:55:40.338Z,98809.55
2019-03-24T22:58:08.562Z,98812.70
2019-03-24T23:00:53.690Z,98806.92
2019-03-24T23:03:24.793Z,98801.14
2019-03-24T23:05:52.110Z,98807.95
2019-03-24T23:08:20.400Z,98795.55
2019-03-24T23:10:48.609Z,98784.39
2019-03-24T23:13:17.119Z,98784.86
2019-03-24T23:15:45.319Z,98773.14
2019-03-24T23:18:13.867Z,98770.12
2019-03-24T23:20:42.328Z,98778.28
2019-03-24T23:23:10.542Z,98767.66
2019-03-24T23:25:38.740Z,98770.43
2019-03-24T23:28:07.285Z,98760.58
2019-03-24T23:30:35.771Z,98761.52
2019-03-24T23:33:04.242Z,98755.27
2019-03-24T23:35:32.446Z,98753.53
2019-03-24T23:38:00.744Z,98748.22
2019-03-24T23:40:28.942Z,98734.44
2019-03-24T23:42:57.151Z,98738.48
2019-03-24T23:45:25.358Z,98735.86
2019-03-24T23:47:53.560Z,98727.86
2019-03-24T23:50:22.077Z,98723.42
2019-03-24T23:52:50.560Z,98715.75
2019-03-24T23:55:18.763Z,98708.20
2019-03-24T23:57:46.958Z,98710.48
